createdAt,value
2022-09-16T00:00:35.914Z,8.88
2022-09-16T00:03:22.397Z,5.32
2022-09-16T00:06:16.466Z,5.07
2022-09-16T00:09:02.326Z,6.43
2022-09-16T00:11:47.684Z,4.80
2022-09-16T00:14:33.270Z,6.07
2022-09-16T00:17:19.028Z,6.72
2022-09-16T00:20:06.047Z,5.55
2022-09-16T00:22:51.609Z,5.13
2022-09-16T00:25:36.961Z,7.00
2022-09-16T00:28:23.670Z,4.57
2022-09-16T00:31:10.222Z,5.22
2022-09-16T00:33:56.095Z,5.30
2022-09-16T00:36:41.499Z,5.88
2022-09-16T00:39:27.023Z,5.57
2022-09-16T00:42:12.538Z,5.60
2022-09-16T00:45:04.813Z,5.28
2022-09-16T00:47:58.709Z,5.25
2022-09-16T00:50:49.452Z,5.10
2022-09-16T00:53:43.032Z,5.88
2022-09-16T00:56:30.902Z,5.28
2022-09-16T00:59:28.320Z,5.00
2022-09-16T01:02:19.505Z,6.13
2022-09-16T01:05:11.462Z,5.80
2022-09-16T01:07:58.344Z,6.00
2022-09-16T01:10:43.857Z,6.43
2022-09-16T01:13:29.857Z,5.00
2022-09-16T01:16:21.374Z,4.82
2022-09-16T01:19:26.404Z,7.03
2022-09-16T01:22:46.110Z,5.25
2022-09-16T01:28:42.020Z,5.45
2022-09-16T01:31:52.674Z,5.00
2022-09-16T01:35:13.596Z,5.32
2022-09-16T01:38:02.222Z,4.95
2022-09-16T01:40:59.554Z,5.80
2022-09-16T01:44:02.261Z,5.28
2022-09-16T01:47:11.156Z,5.45
2022-09-16T01:50:15.356Z,5.78
2022-09-16T01:53:18.528Z,5.07
2022-09-16T01:56:12.646Z,5.18
2022-09-16T01:59:05.128Z,5.00
2022-09-16T02:01:56.543Z,6.05
2022-09-16T02:04:49.273Z,5.18
2022-09-16T02:07:40.242Z,5.25
2022-09-16T02:10:33.168Z,6.40
2022-09-16T02:13:29.099Z,5.07
2022-09-16T02:16:24.918Z,5.35
2022-09-16T02:19:15.696Z,6.22
2022-09-16T02:22:08.249Z,5.72
2022-09-16T02:24:54.195Z,5.07
2022-09-16T02:27:42.073Z,5.65
2022-09-16T02:30:27.651Z,6.45
2022-09-16T02:33:14.838Z,5.47
2022-09-16T02:36:02.850Z,4.93
2022-09-16T02:38:54.561Z,6.05
2022-09-16T02:41:41.119Z,6.47
2022-09-16T02:44:26.955Z,6.80
2022-09-16T02:47:24.793Z,6.45
2022-09-16T02:50:15.995Z,6.80
2022-09-16T02:53:01.503Z,5.50
2022-09-16T02:55:55.753Z,6.05
2022-09-16T02:58:41.798Z,6.32
2022-09-16T03:01:31.870Z,6.15
2022-09-16T03:04:19.895Z,5.90
2022-09-16T03:07:08.248Z,6.03
2022-09-16T03:09:54.111Z,6.03
2022-09-16T03:12:56.720Z,4.90
2022-09-16T03:15:42.501Z,5.18
2022-09-16T03:18:49.632Z,6.20
2022-09-16T03:21:47.955Z,5.88
2022-09-16T03:24:54.529Z,5.05
2022-09-16T03:27:52.448Z,5.30
2022-09-16T03:31:06.182Z,5.90
2022-09-16T03:34:23.993Z,5.32
2022-09-16T03:37:13.163Z,6.05
2022-09-16T03:40:00.259Z,5.00
2022-09-16T03:42:46.232Z,5.93
2022-09-16T03:45:32.101Z,6.13
2022-09-16T03:48:17.776Z,5.25
2022-09-16T03:51:03.660Z,7.90
2022-09-16T03:53:49.933Z,5.97
2022-09-16T03:56:35.418Z,6.20
2022-09-16T03:59:20.896Z,5.82
2022-09-16T04:02:06.369Z,7.18
2022-09-16T04:04:52.429Z,5.50
2022-09-16T04:07:39.870Z,5.97
2022-09-16T04:10:25.480Z,7.10
2022-09-16T04:13:11.083Z,6.10
2022-09-16T04:15:56.829Z,5.72
2022-09-16T04:18:42.743Z,6.38
2022-09-16T04:21:29.368Z,6.55
2022-09-16T04:24:14.798Z,6.07
2022-09-16T04:27:00.175Z,8.32
2022-09-16T04:29:45.701Z,5.80
2022-09-16T04:32:31.133Z,6.22
2022-09-16T04:35:19.476Z,9.23
2022-09-16T04:38:05.267Z,6.20
2022-09-16T04:40:53.110Z,7.05
2022-09-16T04:43:40.919Z,7.68
2022-09-16T04:46:28.616Z,7.15
2022-09-16T04:49:14.143Z,6.70
2022-09-16T04:51:59.832Z,8.00
2022-09-16T04:54:45.331Z,7.50
2022-09-16T04:57:34.581Z,7.03
2022-09-16T05:00:20.452Z,7.10
2022-09-16T05:03:06.849Z,7.38
2022-09-16T05:05:52.822Z,6.43
2022-09-16T05:08:39.379Z,5.97
2022-09-16T05:11:27.614Z,6.43
2022-09-16T05:14:16.042Z,5.35
2022-09-16T05:17:01.682Z,5.82
2022-09-16T05:19:47.536Z,5.20
2022-09-16T05:22:32.681Z,4.95
2022-09-16T05:25:18.556Z,4.72
2022-09-16T05:28:04.184Z,4.60
2022-09-16T05:30:49.767Z,5.22
2022-09-16T05:33:35.470Z,5.35
2022-09-16T05:36:21.610Z,5.63
2022-09-16T05:39:24.554Z,5.47
2022-09-16T05:42:13.698Z,5.35
2022-09-16T05:44:59.335Z,5.30
2022-09-16T05:47:49.011Z,4.72
2022-09-16T05:50:34.475Z,5.57
2022-09-16T05:53:19.866Z,5.45
2022-09-16T05:56:08.740Z,5.28
2022-09-16T05:58:56.433Z,5.30
2022-09-16T06:01:42.659Z,5.22
2022-09-16T06:04:28.351Z,5.43
2022-09-16T06:07:13.878Z,5.30
2022-09-16T06:09:59.095Z,5.22
2022-09-16T06:12:44.968Z,6.07
2022-09-16T06:15:31.475Z,5.35
2022-09-16T06:18:18.795Z,5.38
2022-09-16T06:21:10.727Z,5.82
2022-09-16T06:23:57.114Z,5.40
2022-09-16T06:26:43.836Z,6.07
2022-09-16T06:29:29.264Z,5.63
2022-09-16T06:32:15.292Z,6.70
2022-09-16T06:35:00.738Z,5.97
2022-09-16T06:37:46.233Z,6.35
2022-09-16T06:40:32.282Z,6.63
2022-09-16T06:43:17.713Z,6.72
2022-09-16T06:46:18.384Z,5.90
2022-09-16T06:49:06.074Z,6.38
2022-09-16T06:51:52.186Z,6.40
2022-09-16T06:54:37.678Z,7.28
2022-09-16T06:57:23.644Z,7.88
2022-09-16T07:00:09.887Z,9.48
2022-09-16T07:02:55.204Z,10.45
2022-09-16T07:05:40.943Z,10.27
2022-09-16T07:08:28.717Z,9.15
2022-09-16T07:11:20.041Z,10.05
2022-09-16T07:14:05.553Z,10.75
2022-09-16T07:16:51.265Z,9.27
2022-09-16T07:19:37.882Z,7.32
2022-09-16T07:22:23.411Z,6.28
2022-09-16T07:25:09.193Z,4.72
2022-09-16T07:27:54.765Z,4.03
2022-09-16T07:30:41.150Z,3.50
2022-09-16T07:33:26.721Z,3.17
2022-09-16T07:36:14.884Z,2.10
2022-09-16T07:39:01.223Z,2.55
2022-09-16T07:41:50.720Z,2.35
2022-09-16T07:44:35.895Z,1.90
2022-09-16T07:47:22.337Z,2.33
2022-09-16T07:50:08.260Z,2.33
2022-09-16T07:52:56.997Z,2.28
2022-09-16T07:55:42.032Z,1.50
2022-09-16T07:58:27.527Z,1.40
2022-09-16T08:01:15.157Z,1.20
2022-09-16T08:04:01.046Z,1.42
2022-09-16T08:06:47.124Z,1.67
2022-09-16T08:09:42.300Z,1.40
2022-09-16T08:18:11.221Z,1.35
2022-09-16T08:20:57.297Z,1.50
2022-09-16T08:23:43.617Z,1.55
2022-09-16T08:26:29.375Z,1.23
2022-09-16T08:29:14.827Z,1.75
2022-09-16T08:32:00.823Z,1.30
2022-09-16T08:34:46.420Z,1.63
2022-09-16T08:37:32.164Z,1.50
2022-09-16T08:43:29.218Z,1.77
2022-09-16T08:46:34.718Z,1.77
2022-09-16T08:49:26.747Z,2.15
2022-09-16T08:52:16.627Z,1.58
2022-09-16T08:58:10.812Z,2.30
2022-09-16T09:01:04.965Z,2.38
2022-09-16T09:03:50.634Z,2.30
2022-09-16T09:07:01.807Z,3.65
2022-09-16T09:09:56.537Z,2.92
2022-09-16T09:13:36.902Z,2.85
2022-09-16T09:16:35.700Z,3.28
2022-09-16T09:19:31.392Z,3.60
2022-09-16T09:22:41.398Z,2.75
2022-09-16T09:25:53.324Z,2.88
2022-09-16T09:28:47.906Z,3.60
2022-09-16T09:31:43.277Z,4.25
2022-09-16T09:34:52.659Z,2.90
2022-09-16T09:37:45.969Z,3.50
2022-09-16T09:40:37.841Z,3.38
2022-09-16T09:43:23.193Z,3.53
2022-09-16T09:46:26.446Z,3.80
2022-09-16T09:49:36.038Z,3.30
2022-09-16T09:52:47.817Z,4.07
2022-09-16T09:55:35.012Z,4.28
2022-09-16T09:58:41.799Z,3.50
2022-09-16T10:01:27.633Z,4.57
2022-09-16T10:04:15.557Z,3.58
2022-09-16T10:10:17.901Z,3.70
2022-09-16T10:13:11.313Z,3.67
2022-09-16T10:16:13.187Z,3.58
2022-09-16T10:19:06.149Z,3.60
2022-09-16T10:22:07.918Z,4.43
2022-09-16T10:25:01.980Z,3.53
2022-09-16T10:27:56.298Z,4.80
2022-09-16T10:30:51.606Z,3.65
2022-09-16T10:33:44.732Z,4.03
2022-09-16T10:36:34.415Z,4.25
2022-09-16T10:39:25.700Z,4.88
2022-09-16T10:42:28.638Z,4.80
2022-09-16T10:45:31.610Z,4.75
2022-09-16T10:48:23.416Z,4.15
2022-09-16T10:51:24.982Z,3.72
2022-09-16T10:54:28.154Z,4.53
2022-09-16T10:57:24.356Z,4.45
2022-09-16T11:00:35.381Z,5.13
2022-09-16T11:03:50.089Z,4.43
2022-09-16T11:06:59.738Z,4.38
2022-09-16T11:09:58.090Z,4.25
2022-09-16T11:13:09.772Z,4.13
2022-09-16T11:16:30.785Z,5.50
2022-09-16T11:19:45.586Z,5.28
2022-09-16T11:22:46.481Z,4.63
2022-09-16T11:26:00.619Z,5.50
2022-09-16T11:28:49.284Z,4.90
2022-09-16T11:31:50.483Z,5.38
2022-09-16T11:35:17.445Z,4.60
2022-09-16T11:38:09.291Z,5.38
2022-09-16T11:41:27.387Z,5.28
2022-09-16T11:44:45.212Z,5.57
2022-09-16T11:48:05.070Z,6.75
2022-09-16T11:51:19.130Z,6.45
2022-09-16T11:54:10.728Z,4.13
2022-09-16T11:57:01.806Z,4.00
2022-09-16T12:00:02.152Z,4.95
2022-09-16T12:03:39.843Z,4.30
2022-09-16T12:06:30.807Z,4.45
2022-09-16T12:09:29.682Z,4.15
2022-09-16T12:12:20.043Z,3.63
2022-09-16T12:15:28.283Z,4.88
2022-09-16T12:18:19.544Z,4.18
2022-09-16T12:21:15.079Z,6.97
2022-09-16T12:24:24.591Z,4.40
2022-09-16T12:27:37.327Z,4.70
2022-09-16T12:30:28.612Z,6.68
2022-09-16T12:33:29.108Z,3.90
2022-09-16T12:36:20.420Z,4.50
2022-09-16T12:39:11.328Z,6.53
2022-09-16T12:42:05.746Z,4.90
2022-09-16T12:45:10.267Z,4.75
2022-09-16T12:48:07.919Z,5.72
2022-09-16T12:51:24.234Z,5.85
2022-09-16T12:55:06.624Z,4.75
2022-09-16T12:58:29.893Z,5.00
2022-09-16T13:01:24.857Z,5.32
2022-09-16T13:04:19.623Z,5.05
2022-09-16T13:07:05.783Z,6.13
2022-09-16T13:10:09.646Z,4.85
2022-09-16T13:12:57.112Z,5.95
2022-09-16T13:15:45.016Z,4.88
2022-09-16T13:18:45.994Z,5.53
2022-09-16T13:21:47.362Z,5.45
2022-09-16T13:25:06.642Z,5.32
2022-09-16T13:28:22.119Z,7.30
2022-09-16T13:31:14.280Z,6.47
2022-09-16T13:33:59.800Z,4.43
2022-09-16T13:36:45.532Z,4.75
2022-09-16T13:39:33.757Z,5.10
2022-09-16T13:42:21.205Z,5.95
2022-09-16T13:45:33.466Z,6.28
2022-09-16T13:48:23.415Z,5.90
2022-09-16T13:51:20.037Z,5.55
2022-09-16T13:54:18.697Z,4.35
2022-09-16T13:57:16.236Z,4.72
2022-09-16T14:00:24.295Z,5.55
2022-09-16T14:03:25.842Z,5.50
2022-09-16T14:06:27.599Z,4.80
2022-09-16T14:10:04.599Z,5.57
2022-09-16T14:13:16.556Z,5.93
2022-09-16T14:16:02.698Z,4.70
2022-09-16T14:19:08.037Z,5.63
2022-09-16T14:22:17.227Z,5.53
2022-09-16T14:25:12.762Z,4.68
2022-09-16T14:28:21.497Z,4.93
2022-09-16T14:31:14.535Z,5.38
2022-09-16T14:34:06.731Z,5.32
2022-09-16T14:36:53.675Z,4.97
2022-09-16T14:39:42.922Z,5.25
2022-09-16T14:42:30.328Z,5.47
2022-09-16T14:45:17.994Z,4.00
2022-09-16T14:48:09.260Z,4.40
2022-09-16T14:50:56.019Z,5.00
2022-09-16T14:53:49.802Z,4.22
2022-09-16T14:57:06.466Z,5.93
2022-09-16T14:59:56.231Z,5.28
2022-09-16T15:02:53.318Z,4.10
2022-09-16T15:05:44.643Z,6.10
2022-09-16T15:08:36.032Z,5.68
2022-09-16T15:11:46.477Z,4.10
2022-09-16T15:14:31.861Z,6.05
2022-09-16T15:17:20.886Z,8.02
2022-09-16T15:20:06.776Z,4.90
2022-09-16T15:22:53.633Z,4.32
2022-09-16T15:25:39.247Z,4.53
2022-09-16T15:28:25.670Z,4.80
2022-09-16T15:31:12.829Z,4.30
2022-09-16T15:34:00.106Z,5.13
2022-09-16T15:36:48.967Z,4.57
2022-09-16T15:39:38.661Z,4.72
2022-09-16T15:42:24.382Z,3.72
2022-09-16T15:45:19.939Z,5.82
2022-09-16T15:48:17.431Z,4.35
2022-09-16T15:51:20.396Z,4.78
2022-09-16T15:54:19.526Z,4.97
2022-09-16T15:57:17.594Z,3.63
2022-09-16T16:00:14.089Z,4.93
2022-09-16T16:03:05.113Z,5.10
2022-09-16T16:05:52.874Z,5.15
2022-09-16T16:08:52.721Z,5.25
2022-09-16T16:11:40.641Z,5.45
2022-09-16T16:14:32.351Z,4.85
2022-09-16T16:17:20.856Z,6.50
2022-09-16T16:20:07.606Z,5.47
2022-09-16T16:22:53.679Z,5.05
2022-09-16T16:25:39.577Z,5.18
2022-09-16T16:28:25.020Z,5.72
2022-09-16T16:31:16.436Z,5.43
2022-09-16T16:34:02.774Z,5.53
2022-09-16T16:36:48.164Z,6.43
2022-09-16T16:39:34.905Z,5.55
2022-09-16T16:42:22.123Z,5.35
2022-09-16T16:45:08.439Z,6.35
2022-09-16T16:47:54.328Z,5.95
2022-09-16T16:50:39.927Z,5.65
2022-09-16T16:53:26.538Z,6.78
2022-09-16T16:56:15.455Z,6.90
2022-09-16T16:59:01.369Z,6.73
2022-09-16T17:01:50.447Z,5.88
2022-09-16T17:04:36.735Z,5.40
2022-09-16T17:07:26.164Z,5.80
2022-09-16T17:10:12.858Z,5.90
2022-09-16T17:12:58.843Z,6.70
2022-09-16T17:15:44.847Z,6.18
2022-09-16T17:18:30.368Z,6.07
2022-09-16T17:21:28.311Z,5.60
2022-09-16T17:24:14.086Z,6.13
2022-09-16T17:27:00.274Z,5.65
2022-09-16T17:29:46.111Z,6.35
2022-09-16T17:32:31.764Z,7.50
2022-09-16T17:35:17.245Z,7.32
2022-09-16T17:38:06.810Z,6.07
2022-09-16T17:40:52.748Z,6.03
2022-09-16T17:43:39.899Z,5.65
2022-09-16T17:46:29.713Z,6.53
2022-09-16T17:52:02.752Z,6.97
2022-09-16T17:54:48.614Z,6.75
2022-09-16T17:57:34.161Z,7.70
2022-09-16T18:00:20.066Z,5.40
2022-09-16T18:03:06.765Z,5.40
2022-09-16T18:05:53.476Z,3.85
2022-09-16T18:08:40.078Z,3.53
2022-09-16T18:11:25.719Z,3.63
2022-09-16T18:14:13.300Z,2.80
2022-09-16T18:16:59.837Z,3.13
2022-09-16T18:19:45.389Z,2.53
2022-09-16T18:22:31.063Z,3.70
2022-09-16T18:25:16.479Z,3.70
2022-09-16T18:28:02.101Z,3.38
2022-09-16T18:30:47.847Z,2.85
2022-09-16T18:33:33.833Z,4.13
2022-09-16T18:36:19.593Z,2.13
2022-09-16T18:39:06.064Z,3.38
2022-09-16T18:41:51.742Z,2.45
2022-09-16T18:44:37.584Z,2.28
2022-09-16T18:47:23.466Z,4.28
2022-09-16T18:50:09.355Z,2.90
2022-09-16T18:52:54.679Z,2.67
2022-09-16T18:55:40.317Z,2.25
2022-09-16T18:58:25.807Z,3.72
2022-09-16T19:01:27.385Z,3.60
2022-09-16T19:04:13.073Z,4.03
2022-09-16T19:07:05.997Z,4.25
2022-09-16T19:09:51.875Z,4.82
2022-09-16T19:12:39.341Z,3.42
2022-09-16T19:15:25.152Z,3.28
2022-09-16T19:18:12.427Z,2.38
2022-09-16T19:20:58.089Z,2.40
2022-09-16T19:23:58.793Z,3.03
2022-09-16T19:26:46.201Z,1.80
2022-09-16T19:29:32.625Z,1.90
2022-09-16T19:32:18.696Z,2.28
2022-09-16T19:35:04.602Z,1.65
2022-09-16T19:37:51.139Z,3.85
2022-09-16T19:40:36.964Z,3.03
2022-09-16T19:43:22.546Z,2.90
2022-09-16T19:46:13.148Z,4.55
2022-09-16T19:48:59.029Z,2.85
2022-09-16T19:51:44.958Z,2.72
2022-09-16T19:54:31.173Z,2.88
2022-09-16T19:57:16.624Z,3.85
2022-09-16T20:00:04.669Z,4.72
2022-09-16T20:02:58.207Z,1.95
2022-09-16T20:05:43.884Z,1.80
2022-09-16T20:08:29.927Z,2.67
2022-09-16T20:11:18.274Z,3.63
2022-09-16T20:14:06.676Z,3.33
2022-09-16T20:16:52.737Z,2.08
2022-09-16T20:19:38.212Z,1.90
2022-09-16T20:22:23.704Z,1.65
2022-09-16T20:25:22.372Z,3.10
2022-09-16T20:28:08.709Z,22.88
2022-09-16T20:30:54.311Z,17.60
2022-09-16T20:33:40.927Z,16.50
2022-09-16T20:36:30.438Z,5.10
2022-09-16T20:39:16.544Z,2.47
2022-09-16T20:42:02.054Z,4.32
2022-09-16T20:44:49.464Z,1.67
2022-09-16T20:47:35.563Z,1.63
2022-09-16T20:50:20.774Z,1.67
2022-09-16T20:53:06.397Z,2.35
2022-09-16T20:55:51.987Z,3.10
2022-09-16T20:58:37.704Z,3.35
2022-09-16T21:01:28.683Z,1.55
2022-09-16T21:04:17.420Z,1.70
2022-09-16T21:07:02.747Z,1.20
2022-09-16T21:09:48.287Z,2.38
2022-09-16T21:12:35.554Z,2.30
2022-09-16T21:15:21.590Z,1.73
2022-09-16T21:18:06.957Z,3.42
2022-09-16T21:21:08.122Z,3.40
2022-09-16T21:23:56.478Z,1.30
2022-09-16T21:26:43.886Z,1.67
2022-09-16T21:29:31.088Z,2.30
2022-09-16T21:32:16.516Z,1.77
2022-09-16T21:35:02.133Z,1.08
2022-09-16T21:37:47.718Z,1.67
2022-09-16T21:40:36.477Z,2.63
2022-09-16T21:43:27.441Z,3.00
2022-09-16T21:46:15.597Z,3.55
2022-09-16T21:49:03.205Z,1.67
2022-09-16T21:51:49.239Z,1.75
2022-09-16T21:54:35.120Z,1.00
2022-09-16T21:57:20.891Z,4.53
2022-09-16T22:00:07.553Z,1.98
2022-09-16T22:02:57.342Z,3.95
2022-09-16T22:05:43.292Z,1.20
2022-09-16T22:08:28.995Z,2.67
2022-09-16T22:11:17.224Z,1.60
2022-09-16T22:14:03.204Z,5.43
2022-09-16T22:16:48.801Z,3.30
2022-09-16T22:19:34.269Z,2.45
2022-09-16T22:22:21.455Z,2.80
2022-09-16T22:25:07.380Z,1.60
2022-09-16T22:27:52.710Z,2.03
2022-09-16T22:30:38.404Z,1.55
2022-09-16T22:33:24.171Z,2.70
2022-09-16T22:36:11.841Z,2.17
2022-09-16T22:39:11.108Z,3.58
2022-09-16T22:41:56.946Z,1.83
2022-09-16T22:44:42.362Z,2.63
2022-09-16T22:47:28.115Z,3.47
2022-09-16T22:50:13.883Z,2.10
2022-09-16T22:53:00.560Z,3.38
2022-09-16T22:55:46.197Z,3.20
2022-09-16T22:58:32.573Z,1.85
2022-09-16T23:01:21.271Z,3.15
2022-09-16T23:04:08.458Z,1.88
2022-09-16T23:06:53.943Z,2.95
2022-09-16T23:09:39.674Z,2.88
2022-09-16T23:12:25.619Z,2.97
2022-09-16T23:15:11.511Z,4.38
2022-09-16T23:17:57.073Z,2.63
2022-09-16T23:20:42.604Z,2.70
2022-09-16T23:23:29.825Z,4.90
2022-09-16T23:26:19.116Z,2.83
2022-09-16T23:29:07.664Z,1.80
2022-09-16T23:31:53.126Z,2.40
2022-09-16T23:34:38.762Z,2.63
2022-09-16T23:37:24.430Z,2.47
2022-09-16T23:40:10.235Z,1.85
2022-09-16T23:42:56.281Z,2.33
2022-09-16T23:45:42.291Z,2.28
2022-09-16T23:48:28.522Z,3.25
2022-09-16T23:51:14.378Z,2.45
2022-09-16T23:54:00.808Z,4.20
2022-09-16T23:56:46.899Z,1.60
2022-09-16T23:59:32.345Z,3.95
